Time;durP1;ratioP1;P1;durP2;ratioP2;P2;SDS_P1;SDS_P2;PMS_P1;PMS_P2;Temp;Humidity;BMP_temperature;BMP_pressure;BME280_temperature;BME280_humidity;BME280_pressure;Samples;Min_cycle;Max_cycle;Signal;HPM_P1;HPM_P2
2021/11/04 00:01:04;;;;;;;16.92;9.20;;;;;;;8.90;100.00;95077.50;5046094;28;20057;-71
2021/11/04 00:03:36;;;;;;;18.40;9.27;;;;;;;8.85;100.00;95080.72;5043934;28;20059;-72
2021/11/04 00:06:03;;;;;;;21.45;10.25;;;;;;;8.79;100.00;95081.59;5044597;28;20040;-72
2021/11/04 00:08:30;;;;;;;18.25;9.15;;;;;;;8.79;100.00;95089.38;5044717;28;20140;-72
2021/11/04 00:10:57;;;;;;;17.40;9.27;;;;;;;8.89;100.00;95092.28;5044532;28;20041;-72
2021/11/04 00:13:24;;;;;;;18.70;8.63;;;;;;;8.86;100.00;95103.13;5044808;28;20048;-73
2021/11/04 00:15:51;;;;;;;15.63;8.75;;;;;;;8.74;100.00;95087.41;5044390;28;20044;-72
2021/11/04 00:18:18;;;;;;;14.82;7.47;;;;;;;8.84;100.00;95084.34;5044755;28;20037;-72
2021/11/04 00:20:45;;;;;;;23.58;9.73;;;;;;;8.77;100.00;95068.03;5025219;28;20052;-71
2021/11/04 00:23:12;;;;;;;18.92;8.38;;;;;;;8.84;100.00;95073.97;5042928;28;20075;-72
2021/11/04 00:25:39;;;;;;;18.98;9.65;;;;;;;8.75;100.00;95068.25;5042337;28;20059;-72
2021/11/04 00:28:06;;;;;;;21.85;9.45;;;;;;;8.78;100.00;95085.19;5043363;28;20048;-72
2021/11/04 00:30:32;;;;;;;18.27;9.25;;;;;;;8.72;100.00;95091.25;5044116;28;20044;-72
2021/11/04 00:32:59;;;;;;;20.92;11.02;;;;;;;8.83;100.00;95102.75;5042778;28;20045;-72
2021/11/04 00:35:26;;;;;;;19.13;9.15;;;;;;;8.71;100.00;95094.84;5025345;28;20140;-72
2021/11/04 00:37:54;;;;;;;19.42;9.38;;;;;;;8.67;100.00;95078.09;5043654;28;20110;-71
2021/11/04 00:40:22;;;;;;;21.73;10.73;;;;;;;8.68;100.00;95090.06;5043954;28;20172;-72
2021/11/04 00:42:49;;;;;;;21.88;11.18;;;;;;;8.69;100.00;95086.47;5044416;28;20052;-72
2021/11/04 00:45:16;;;;;;;22.45;10.70;;;;;;;8.71;100.00;95089.63;5044284;28;20055;-72
2021/11/04 00:47:43;;;;;;;30.83;11.70;;;;;;;8.64;100.00;95091.50;5044412;28;20029;-72
2021/11/04 00:50:10;;;;;;;22.20;12.30;;;;;;;8.72;100.00;95086.06;5043349;28;20508;-72
2021/11/04 00:52:37;;;;;;;25.67;13.15;;;;;;;8.63;100.00;95079.53;5043825;28;20549;-72
2021/11/04 00:55:05;;;;;;;23.63;12.70;;;;;;;8.67;100.00;95085.88;5044145;28;20422;-71
2021/11/04 00:57:32;;;;;;;23.23;11.60;;;;;;;8.58;100.00;95086.13;5026698;28;20086;-72
2021/11/04 00:59:59;;;;;;;24.80;12.35;;;;;;;8.64;100.00;95086.31;5026930;28;20048;-72
2021/11/04 01:02:26;;;;;;;24.27;11.15;;;;;;;8.74;100.00;95095.22;5042694;28;20043;-72
2021/11/04 01:04:53;;;;;;;26.58;12.13;;;;;;;8.70;100.00;95082.88;5043584;28;20052;-72
2021/11/04 01:07:20;;;;;;;24.50;11.27;;;;;;;8.84;100.00;95099.94;5042629;28;20052;-72
2021/11/04 01:09:46;;;;;;;23.45;10.05;;;;;;;8.59;100.00;95098.13;5043399;28;20037;-72
2021/11/04 01:12:13;;;;;;;23.23;10.57;;;;;;;8.44;100.00;95089.84;5043038;28;20506;-72
2021/11/04 01:14:41;;;;;;;21.50;9.90;;;;;;;8.37;100.00;95089.06;5043604;28;20049;-71
2021/11/04 01:17:08;;;;;;;29.63;12.35;;;;;;;8.42;100.00;95091.84;5025188;28;20437;-72
2021/11/04 01:19:34;;;;;;;26.02;12.02;;;;;;;8.46;100.00;95077.44;5041841;28;20040;-72
2021/11/04 01:22:02;;;;;;;22.33;11.70;;;;;;;8.41;100.00;95080.66;5043566;28;20473;-72
2021/11/04 01:24:28;;;;;;;22.75;10.90;;;;;;;8.43;100.00;95077.88;5041876;28;20541;-72
2021/11/04 01:26:55;;;;;;;20.42;11.43;;;;;;;8.38;100.00;95080.28;5043816;28;20072;-72
2021/11/04 01:29:22;;;;;;;25.17;11.50;;;;;;;8.34;100.00;95068.75;5024574;28;20037;-72
2021/11/04 01:31:49;;;;;;;23.35;12.27;;;;;;;8.34;100.00;95068.75;5025462;28;20041;-71
2021/11/04 01:34:16;;;;;;;21.20;11.63;;;;;;;8.50;100.00;95089.00;5043590;28;20056;-71
2021/11/04 01:36:42;;;;;;;26.27;11.68;;;;;;;8.35;100.00;95062.53;5043407;28;20037;-71
2021/11/04 01:39:09;;;;;;;25.52;12.07;;;;;;;8.42;100.00;95060.72;5043664;28;20041;-71
2021/11/04 01:41:36;;;;;;;22.83;10.52;;;;;;;8.61;100.00;95070.16;5042878;28;20051;-71
2021/11/04 01:44:03;;;;;;;28.70;12.80;;;;;;;8.73;100.00;95074.63;5043162;28;20052;-71
2021/11/04 01:46:30;;;;;;;26.85;13.30;;;;;;;8.84;100.00;95073.97;5042686;28;20041;-71
2021/11/04 01:48:59;;;;;;;24.88;12.80;;;;;;;8.86;100.00;95066.75;5043845;28;20043;-72
2021/11/04 01:51:26;;;;;;;27.65;13.02;;;;;;;8.98;100.00;95080.63;5043406;28;20045;-71
2021/11/04 01:53:54;;;;;;;24.40;12.43;;;;;;;8.97;100.00;95073.81;5042752;28;20049;-71
2021/11/04 01:56:20;;;;;;;25.17;12.10;;;;;;;8.96;100.00;95077.41;5043695;28;20041;-71
2021/11/04 01:58:47;;;;;;;24.95;11.50;;;;;;;9.06;100.00;95076.16;5025105;28;20045;-71
2021/11/04 02:01:16;;;;;;;26.52;12.13;;;;;;;9.10;100.00;95072.13;5043001;28;20095;-71
2021/11/04 02:04:16;;;;;;;22.67;12.15;;;;;;;9.20;100.00;95077.63;5042073;28;20125;-71
2021/11/04 02:06:49;;;;;;;22.20;10.63;;;;;;;9.23;100.00;95066.78;5041996;28;20044;-72
2021/11/04 02:09:41;;;;;;;23.20;11.02;;;;;;;9.22;100.00;95080.78;5041710;28;20048;-71
2021/11/04 02:12:22;;;;;;;23.05;10.85;;;;;;;8.95;100.00;95072.47;5042629;28;20464;-71
2021/11/04 02:14:55;;;;;;;24.25;10.27;;;;;;;8.84;100.00;95068.78;5043308;28;20114;-71
2021/11/04 02:17:23;;;;;;;20.50;10.05;;;;;;;8.77;100.00;95075.81;5042507;28;20096;-72
2021/11/04 02:19:58;;;;;;;13.75;7.55;;;;;;;8.68;100.00;95090.88;5042958;28;20040;-71
2021/11/04 02:22:28;;;;;;;14.68;7.82;;;;;;;8.57;100.00;95087.16;5042669;28;20120;-71
2021/11/04 02:25:25;;;;;;;14.07;7.97;;;;;;;8.47;100.00;95089.44;5041046;28;20053;-71
2021/11/04 02:27:55;;;;;;;14.07;7.78;;;;;;;8.34;100.00;95090.28;5042484;28;20033;-72
2021/11/04 02:30:24;;;;;;;17.92;7.65;;;;;;;8.23;100.00;95083.97;5042019;28;20473;-72
2021/11/04 02:32:52;;;;;;;11.73;6.97;;;;;;;8.12;100.00;95076.84;5043181;28;20049;-71
2021/11/04 02:35:20;;;;;;;17.33;7.47;;;;;;;8.14;100.00;95074.84;5041733;28;20049;-72
2021/11/04 02:37:50;;;;;;;14.48;7.18;;;;;;;8.29;100.00;95097.91;5042402;28;20029;-71
2021/11/04 02:40:17;;;;;;;20.27;10.20;;;;;;;8.30;100.00;95098.69;5043040;28;20409;-71
2021/11/04 02:42:44;;;;;;;17.77;8.57;;;;;;;8.21;100.00;95085.97;5042157;28;20037;-71
2021/11/04 02:45:13;;;;;;;19.00;9.00;;;;;;;8.48;100.00;95106.59;5045497;28;20044;-72
2021/11/04 02:47:41;;;;;;;26.02;11.48;;;;;;;8.42;100.00;95081.47;5046127;28;20052;-71
2021/11/04 02:50:09;;;;;;;18.90;8.82;;;;;;;8.39;100.00;95081.84;5046151;28;20044;-72
2021/11/04 02:52:37;;;;;;;20.10;8.75;;;;;;;8.38;100.00;95091.44;5046627;28;20044;-71
2021/11/04 02:55:06;;;;;;;15.35;8.07;;;;;;;8.26;100.00;95092.34;5045784;28;20040;-71
2021/11/04 02:57:42;;;;;;;12.20;7.38;;;;;;;8.17;100.00;95095.16;5045846;28;20063;-71
2021/11/04 03:00:11;;;;;;;14.55;6.65;;;;;;;8.22;100.00;95097.94;5046229;28;20052;-72
2021/11/04 03:02:38;;;;;;;12.77;6.20;;;;;;;8.17;100.00;95100.34;5046241;28;20494;-71
2021/11/04 03:05:05;;;;;;;12.40;6.68;;;;;;;8.21;100.00;95106.75;5045807;28;20044;-72
2021/11/04 03:07:33;;;;;;;11.05;5.97;;;;;;;8.19;100.00;95118.31;5044823;28;20037;-72
2021/11/04 03:09:59;;;;;;;16.40;6.88;;;;;;;8.07;100.00;95120.78;5045028;28;20047;-71
2021/11/04 03:12:26;;;;;;;8.63;5.15;;;;;;;7.99;100.00;95108.84;5044444;28;20055;-72
2021/11/04 03:14:54;;;;;;;14.27;5.70;;;;;;;7.93;100.00;95108.88;5046037;28;20129;-71
2021/11/04 03:17:21;;;;;;;11.93;6.18;;;;;;;7.99;100.00;95118.41;5028384;28;20040;-71
2021/11/04 03:19:48;;;;;;;9.73;5.35;;;;;;;8.03;100.00;95119.59;5046512;28;20037;-72
2021/11/04 03:22:15;;;;;;;10.43;4.97;;;;;;;7.95;100.00;95123.22;5046206;28;20691;-72
2021/11/04 03:24:43;;;;;;;11.40;5.30;;;;;;;8.01;100.00;95142.34;5043355;28;20106;-71
2021/11/04 03:27:10;;;;;;;9.35;4.30;;;;;;;8.01;100.00;95142.34;5046211;28;20487;-72
2021/11/04 03:29:41;;;;;;;10.02;5.20;;;;;;;7.91;100.00;95131.66;5045504;28;20041;-71
2021/11/04 03:32:17;;;;;;;10.10;5.25;;;;;;;7.78;100.00;95130.69;5044394;28;20124;-71
2021/11/04 03:34:45;;;;;;;10.95;5.63;;;;;;;7.73;100.00;95114.94;5044795;28;20490;-71
2021/11/04 03:37:15;;;;;;;8.60;5.18;;;;;;;7.73;100.00;95120.13;5043832;28;20111;-71
2021/11/04 03:39:43;;;;;;;14.82;5.90;;;;;;;7.59;100.00;95108.22;5045881;28;20037;-71
2021/11/04 03:42:12;;;;;;;16.20;7.07;;;;;;;7.63;100.00;95115.41;5045033;28;20037;-71
2021/11/04 03:44:40;;;;;;;10.95;6.43;;;;;;;7.61;100.00;95129.53;5046521;28;20045;-72
2021/11/04 03:47:08;;;;;;;11.98;6.50;;;;;;;7.56;100.00;95129.38;5027804;28;20502;-72
2021/11/04 03:49:37;;;;;;;13.98;7.15;;;;;;;7.63;100.00;95124.94;5044216;28;20048;-72
2021/11/04 03:52:04;;;;;;;16.35;7.47;;;;;;;7.70;100.00;95130.91;5026485;28;20067;-71
2021/11/04 03:54:32;;;;;;;15.65;7.35;;;;;;;7.57;100.00;95110.22;5045118;28;20487;-71
2021/11/04 03:56:59;;;;;;;15.75;7.70;;;;;;;7.66;100.00;95119.38;5044178;28;20098;-71
2021/11/04 03:59:27;;;;;;;12.80;7.60;;;;;;;7.69;100.00;95118.97;5045824;28;20472;-71
2021/11/04 04:01:54;;;;;;;13.82;7.70;;;;;;;7.66;100.00;95124.56;5045062;28;20395;-71
2021/11/04 04:04:21;;;;;;;18.30;8.93;;;;;;;7.70;100.00;95125.72;5045268;28;20552;-71
2021/11/04 04:06:55;;;;;;;16.08;9.15;;;;;;;7.77;100.00;95142.06;5043876;28;20048;-71
2021/11/04 04:09:23;;;;;;;19.85;10.20;;;;;;;7.88;100.00;95126.84;5044443;28;20119;-71
2021/11/04 04:11:52;;;;;;;16.60;8.63;;;;;;;7.88;100.00;95121.66;5043459;28;20033;-71
2021/11/04 04:14:21;;;;;;;17.48;8.27;;;;;;;7.94;100.00;95118.25;5045073;28;20044;-72
2021/11/04 04:16:48;;;;;;;19.40;8.63;;;;;;;7.89;100.00;95107.72;5045845;28;20131;-72
2021/11/04 04:19:16;;;;;;;16.48;8.50;;;;;;;7.98;100.00;95133.19;5043460;28;20046;-71
2021/11/04 04:21:42;;;;;;;15.77;8.43;;;;;;;7.96;100.00;95124.00;5044827;28;20044;-71
2021/11/04 04:24:09;;;;;;;19.58;9.48;;;;;;;7.97;100.00;95125.63;5042901;28;20525;-71
2021/11/04 04:26:36;;;;;;;13.60;6.85;;;;;;;7.95;100.00;95127.63;5043938;28;20431;-71
2021/11/04 04:29:03;;;;;;;15.15;8.43;;;;;;;8.07;100.00;95131.16;5044588;28;20037;-71
2021/11/04 04:31:29;;;;;;;18.30;7.22;;;;;;;7.99;100.00;95128.78;5043492;28;20578;-72
2021/11/04 04:33:56;;;;;;;14.15;7.15;;;;;;;8.09;100.00;95138.75;5043794;28;20079;-71
2021/11/04 04:36:23;;;;;;;13.00;7.53;;;;;;;8.07;100.00;95140.72;5044747;28;20044;-71
2021/11/04 04:38:50;;;;;;;13.35;8.00;;;;;;;8.03;100.00;95130.78;5043373;28;20041;-71
2021/11/04 04:41:17;;;;;;;11.98;6.75;;;;;;;7.95;100.00;95118.03;5044123;28;20040;-71
2021/11/04 04:43:43;;;;;;;14.85;6.70;;;;;;;8.01;100.00;95131.97;5043165;28;20044;-71
2021/11/04 04:46:10;;;;;;;12.23;6.75;;;;;;;8.11;100.00;95140.13;5043742;28;20552;-71
2021/11/04 04:48:37;;;;;;;13.60;6.88;;;;;;;7.95;100.00;95127.63;5044046;28;20041;-72
2021/11/04 04:51:04;;;;;;;13.30;6.03;;;;;;;7.99;100.00;95139.16;5044399;28;20045;-72
2021/11/04 04:53:31;;;;;;;10.75;6.03;;;;;;;7.96;100.00;95139.56;5044127;28;20037;-72
2021/11/04 04:55:58;;;;;;;14.75;5.90;;;;;;;7.82;100.00;95134.47;5044490;28;20037;-72
2021/11/04 04:58:25;;;;;;;12.73;6.80;;;;;;;7.75;100.00;95125.91;5043598;28;20090;-71
2021/11/04 05:00:51;;;;;;;12.88;6.78;;;;;;;7.80;100.00;95149.44;5043871;28;20041;-71
2021/11/04 05:03:19;;;;;;;18.30;7.90;;;;;;;7.72;100.00;95154.84;5025489;28;20131;-71
2021/11/04 05:05:46;;;;;;;13.02;6.32;;;;;;;7.75;100.00;95144.06;5045000;28;20045;-71
2021/11/04 05:08:13;;;;;;;14.93;6.80;;;;;;;7.68;100.00;95138.09;5042960;28;20045;-71
2021/11/04 05:10:39;;;;;;;16.83;7.45;;;;;;;7.74;100.00;95152.84;5044300;28;20051;-71
2021/11/04 05:13:06;;;;;;;13.15;6.68;;;;;;;7.83;100.00;95164.59;5043709;28;20045;-71
2021/11/04 05:15:33;;;;;;;11.02;7.22;;;;;;;7.86;100.00;95150.41;5043912;28;20051;-71
2021/11/04 05:18:00;;;;;;;19.60;7.22;;;;;;;7.87;100.00;95154.59;5043201;28;20041;-71
2021/11/04 05:20:27;;;;;;;12.63;6.50;;;;;;;7.90;100.00;95153.38;5044005;28;20098;-71
2021/11/04 05:22:53;;;;;;;11.90;6.20;;;;;;;7.67;100.00;95157.25;5042477;28;20498;-71
2021/11/04 05:25:20;;;;;;;20.45;9.68;;;;;;;7.58;100.00;95168.81;5041872;28;20033;-72
2021/11/04 05:27:47;;;;;;;48.72;21.35;;;;;;;7.52;100.00;95162.66;5026110;28;20055;-71
2021/11/04 05:30:19;;;;;;;34.88;16.73;;;;;;;7.46;100.00;95156.50;5041420;28;20051;-72
2021/11/04 05:32:47;;;;;;;36.63;23.52;;;;;;;7.33;100.00;95151.34;5043061;28;20033;-71
2021/11/04 05:35:15;;;;;;;25.88;14.98;;;;;;;7.35;100.00;95149.34;5043668;28;20048;-72
2021/11/04 05:37:42;;;;;;;21.77;12.90;;;;;;;7.44;100.00;95142.97;5039117;28;20044;-71
2021/11/04 05:40:10;;;;;;;22.20;11.85;;;;;;;7.37;100.00;95125.84;5043313;28;20099;-71
2021/11/04 05:42:37;;;;;;;24.23;14.40;;;;;;;7.61;100.00;95142.50;5032623;28;20052;-71
2021/11/04 05:45:05;;;;;;;25.80;12.15;;;;;;;7.61;100.00;95152.88;5042244;28;20499;-71
2021/11/04 05:47:33;;;;;;;23.15;11.43;;;;;;;7.70;100.00;95151.66;5037979;28;20049;-70
2021/11/04 05:49:59;;;;;;;23.67;12.10;;;;;;;7.89;100.00;95154.41;5038134;28;20033;-70
2021/11/04 05:52:27;;;;;;;26.70;11.95;;;;;;;8.06;100.00;95155.50;5040125;28;20079;-71
2021/11/04 05:54:56;;;;;;;29.48;13.23;;;;;;;8.18;100.00;95166.81;5039526;28;20105;-71
2021/11/04 05:57:23;;;;;;;22.35;10.70;;;;;;;8.26;100.00;95175.38;5038579;28;20048;-71
2021/11/04 05:59:50;;;;;;;33.25;12.75;;;;;;;8.38;100.00;95171.13;5039641;28;20044;-71
2021/11/04 06:02:17;;;;;;;21.40;11.68;;;;;;;8.41;100.00;95181.09;5039515;28;20051;-71
2021/11/04 06:04:45;;;;;;;18.05;10.02;;;;;;;8.49;100.00;95175.66;5037188;28;20049;-71
2021/11/04 06:07:15;;;;;;;18.05;10.98;;;;;;;8.58;100.00;95174.41;5038302;28;20061;-71
2021/11/04 06:09:42;;;;;;;20.13;11.02;;;;;;;8.65;100.00;95178.78;5033549;28;20502;-71
2021/11/04 06:12:09;;;;;;;19.00;11.18;;;;;;;8.70;100.00;95199.72;5038546;28;20063;-71
2021/11/04 06:14:38;;;;;;;15.98;9.77;;;;;;;8.82;100.00;95185.03;5038110;28;20049;-71
2021/11/04 06:17:05;;;;;;;16.65;9.32;;;;;;;8.85;100.00;95189.81;5037738;28;20067;-71
2021/11/04 06:19:32;;;;;;;16.27;7.80;;;;;;;8.95;100.00;95190.16;5038639;28;20040;-71
2021/11/04 06:21:58;;;;;;;15.52;7.57;;;;;;;9.04;100.00;95205.47;5045292;28;20051;-71
2021/11/04 06:24:25;;;;;;;13.95;7.68;;;;;;;9.16;100.00;95229.75;5041537;28;20048;-71
2021/11/04 06:26:52;;;;;;;15.23;8.80;;;;;;;9.26;100.00;95245.69;5042114;28;20048;-71
2021/11/04 06:29:19;;;;;;;17.95;8.98;;;;;;;9.40;100.00;95253.38;5043309;28;20472;-70
2021/11/04 06:31:46;;;;;;;22.25;11.18;;;;;;;9.59;100.00;95255.00;5043894;28;20040;-70
2021/11/04 06:34:13;;;;;;;19.88;10.10;;;;;;;9.55;100.00;95217.44;5043213;28;20114;-71
2021/11/04 06:36:39;;;;;;;23.23;11.80;;;;;;;9.77;100.00;95249.81;5043676;28;20052;-71
2021/11/04 06:39:06;;;;;;;25.65;10.73;;;;;;;9.90;100.00;95235.09;5043062;28;20075;-71
2021/11/04 06:41:33;;;;;;;23.95;9.95;;;;;;;10.00;100.00;95238.00;5041960;28;20437;-71
2021/11/04 06:44:00;;;;;;;24.48;12.13;;;;;;;10.01;100.00;95223.16;5042724;28;20499;-71
2021/11/04 06:46:29;;;;;;;24.40;12.55;;;;;;;10.16;100.00;95220.22;5043622;28;20045;-72
2021/11/04 06:49:07;;;;;;;29.10;13.02;;;;;;;10.25;100.00;95213.72;5043345;28;20030;-71
2021/11/04 06:51:38;;;;;;;18.25;10.32;;;;;;;10.28;100.00;95197.63;5027958;28;20045;-72
2021/11/04 06:54:07;;;;;;;19.38;9.80;;;;;;;10.41;100.00;95202.72;5039824;28;20037;-71
2021/11/04 06:56:42;;;;;;;19.98;9.77;;;;;;;10.54;100.00;95200.94;5045026;28;20045;-72
2021/11/04 06:59:16;;;;;;;23.63;11.30;;;;;;;10.64;100.00;95206.41;5042729;28;20048;-71
2021/11/04 07:01:55;;;;;;;23.92;11.40;;;;;;;10.63;100.00;95199.63;5044694;28;20049;-70
2021/11/04 07:04:37;;;;;;;25.63;12.48;;;;;;;10.74;100.00;95201.47;5044779;28;20063;-72
2021/11/04 07:07:08;;;;;;;21.42;10.82;;;;;;;10.84;100.00;95199.13;5045471;28;20041;-70
2021/11/04 07:09:37;;;;;;;16.50;7.75;;;;;;;10.84;100.00;95193.91;5043847;28;20037;-71
2021/11/04 07:12:07;;;;;;;15.27;8.18;;;;;;;10.95;100.00;95199.34;5043949;28;20045;-70
2021/11/04 07:14:36;;;;;;;20.33;9.93;;;;;;;11.02;100.00;95211.28;5042470;28;20045;-70
2021/11/04 07:17:04;;;;;;;20.13;10.65;;;;;;;11.14;100.00;95221.72;5044391;28;20059;-70
2021/11/04 07:19:31;;;;;;;19.45;10.07;;;;;;;11.29;100.00;95229.91;5044509;28;20040;-71
2021/11/04 07:22:20;;;;;;;22.35;11.43;;;;;;;11.44;100.00;95228.66;5046243;28;20430;-71
2021/11/04 07:25:17;;;;;;;22.20;10.32;;;;;;;11.47;100.00;95230.84;5043415;28;20410;-71
2021/11/04 07:28:25;;;;;;;21.02;11.13;;;;;;;11.54;100.00;95241.97;5030111;28;20056;-70
2021/11/04 07:30:55;;;;;;;21.27;11.23;;;;;;;11.72;100.00;95235.00;5006115;28;20045;-71
2021/11/04 07:33:24;;;;;;;21.27;9.55;;;;;;;11.92;100.00;95237.28;5042583;28;20091;-70
2021/11/04 07:35:52;;;;;;;35.38;15.65;;;;;;;11.92;100.00;95226.84;5040861;28;20045;-71
2021/11/04 07:38:21;;;;;;;29.15;11.80;;;;;;;12.09;100.00;95242.63;5040904;28;20056;-71
2021/11/04 07:40:49;;;;;;;31.35;14.20;;;;;;;12.21;100.00;95235.56;5035579;28;20040;-70
2021/11/04 07:43:18;;;;;;;32.08;14.75;;;;;;;12.33;100.00;95244.13;5044890;28;20525;-71
2021/11/04 07:45:45;;;;;;;32.45;13.80;;;;;;;12.47;100.00;95239.44;5044299;28;20536;-71
2021/11/04 07:48:13;;;;;;;35.00;15.80;;;;;;;12.52;100.00;95236.16;5045168;28;20095;-71
2021/11/04 07:50:39;;;;;;;35.60;15.98;;;;;;;12.46;100.00;95213.56;5024256;28;20049;-71
2021/11/04 07:53:06;;;;;;;53.65;20.85;;;;;;;12.68;100.00;95235.41;5039739;28;20498;-71
2021/11/04 07:55:33;;;;;;;25.15;11.70;;;;;;;12.78;100.00;95243.44;5045396;28;20854;-71
2021/11/04 07:58:00;;;;;;;39.42;18.60;;;;;;;12.98;100.00;95244.81;5039512;28;20089;-72
2021/11/04 08:00:29;;;;;;;67.32;32.17;;;;;;;13.11;100.00;95249.75;5043700;28;20075;-71
2021/11/04 08:02:56;;;;;;;68.32;36.67;;;;;;;13.19;100.00;95236.28;5043057;28;20119;-71
2021/11/04 08:05:24;;;;;;;26.50;13.68;;;;;;;13.22;100.00;95234.22;5043555;28;20041;-71
2021/11/04 08:07:51;;;;;;;19.65;8.40;;;;;;;13.34;100.00;95234.97;5034060;28;20045;-71
2021/11/04 08:10:19;;;;;;;51.22;22.83;;;;;;;13.39;100.00;95224.56;5040771;28;20040;-71
2021/11/04 08:12:46;;;;;;;94.28;51.92;;;;;;;13.74;100.00;95234.00;5042781;28;20052;-71
2021/11/04 08:15:14;;;;;;;27.75;16.48;;;;;;;13.84;99.55;95226.28;5041098;28;20453;-72
2021/11/04 08:17:42;;;;;;;23.52;15.85;;;;;;;14.04;98.83;95235.44;5042091;28;20041;-71
2021/11/04 08:20:10;;;;;;;20.65;11.07;;;;;;;14.16;98.85;95228.25;5023207;28;20745;-72
2021/11/04 08:22:37;;;;;;;17.95;10.70;;;;;;;14.29;98.35;95235.75;5038675;28;20532;-71
2021/11/04 08:25:06;;;;;;;13.25;7.15;;;;;;;14.46;96.17;95240.16;5037392;28;20045;-71
2021/11/04 08:27:34;;;;;;;39.17;26.38;;;;;;;14.41;95.84;95242.72;5043386;28;20059;-72
2021/11/04 08:30:01;;;;;;;54.88;33.53;;;;;;;14.53;98.67;95231.06;5037286;28;20033;-71
2021/11/04 08:32:28;;;;;;;49.53;31.48;;;;;;;14.54;94.98;95237.09;5039946;28;20056;-71
2021/11/04 08:34:55;;;;;;;138.23;79.55;;;;;;;14.70;95.75;95228.38;5037554;28;20092;-70
2021/11/04 08:37:22;;;;;;;29.75;16.20;;;;;;;14.94;93.40;95241.19;5041205;28;20478;-70
2021/11/04 08:39:49;;;;;;;79.32;33.92;;;;;;;15.00;92.25;95227.09;5038959;28;20084;-71
2021/11/04 08:42:16;;;;;;;28.05;15.60;;;;;;;15.19;90.88;95229.34;5039223;28;20061;-72
2021/11/04 08:44:43;;;;;;;18.90;10.57;;;;;;;15.30;90.75;95252.00;5043532;28;20059;-71
2021/11/04 08:47:10;;;;;;;11.13;6.75;;;;;;;15.35;90.38;95238.91;5042916;28;20106;-71
2021/11/04 08:49:38;;;;;;;16.92;8.05;;;;;;;15.40;90.07;95238.97;5044279;28;20041;-71
2021/11/04 08:52:07;;;;;;;18.75;8.98;;;;;;;15.63;88.15;95250.16;5043350;28;20052;-72
2021/11/04 08:54:35;;;;;;;12.55;6.65;;;;;;;15.63;87.75;95213.41;5043325;28;20045;-72
2021/11/04 08:57:03;;;;;;;17.23;8.15;;;;;;;15.95;86.93;95238.81;5040906;28;20525;-73
2021/11/04 08:59:30;;;;;;;75.20;38.38;;;;;;;16.03;87.00;95227.84;5042296;28;20041;-71
2021/11/04 09:01:57;;;;;;;11.73;6.65;;;;;;;16.10;85.35;95238.91;5044403;28;20730;-72
2021/11/04 09:04:24;;;;;;;18.10;12.68;;;;;;;16.24;86.04;95232.16;5041093;28;20053;-72
2021/11/04 09:06:51;;;;;;;14.80;8.50;;;;;;;16.46;85.15;95225.94;5043189;28;20051;-72
2021/11/04 09:09:18;;;;;;;15.60;9.05;;;;;;;16.53;83.56;95226.47;5038761;28;20044;-72
2021/11/04 09:11:45;;;;;;;34.13;22.73;;;;;;;16.66;84.77;95208.63;5040149;28;20053;-71
2021/11/04 09:14:13;;;;;;;13.63;8.10;;;;;;;16.68;82.90;95206.53;5039404;28;20089;-71
2021/11/04 09:16:43;;;;;;;10.57;6.78;;;;;;;16.93;81.07;95214.50;5043996;28;20045;-71
2021/11/04 09:19:10;;;;;;;18.83;11.18;;;;;;;16.90;81.74;95215.00;5044480;28;20041;-71
2021/11/04 09:21:37;;;;;;;10.07;4.80;;;;;;;17.16;83.19;95201.84;5043439;28;20422;-71
2021/11/04 09:24:04;;;;;;;22.08;9.25;;;;;;;17.10;80.20;95202.91;5026447;28;20056;-71
2021/11/04 09:26:31;;;;;;;11.60;6.90;;;;;;;17.36;78.67;95193.19;5042303;28;20879;-72
2021/11/04 09:28:58;;;;;;;13.02;6.40;;;;;;;17.58;78.57;95203.44;5043396;28;20040;-72
2021/11/04 09:31:25;;;;;;;13.63;7.25;;;;;;;17.92;79.14;95197.59;5042404;28;20053;-72
2021/11/04 09:33:57;;;;;;;10.52;5.47;;;;;;;18.03;77.57;95209.69;5044006;28;20526;-71
2021/11/04 09:36:28;;;;;;;19.10;10.73;;;;;;;18.27;75.48;95203.81;5044266;28;20049;-72
2021/11/04 09:39:03;;;;;;;11.23;6.82;;;;;;;18.34;74.34;95199.81;5043668;28;20049;-72
2021/11/04 09:41:31;;;;;;;16.77;10.00;;;;;;;18.35;77.39;95200.63;5043751;28;20562;-72
2021/11/04 09:44:03;;;;;;;15.23;9.77;;;;;;;18.77;74.57;95193.28;5043310;28;20044;-72
2021/11/04 09:46:34;;;;;;;15.98;8.57;;;;;;;19.15;73.04;95202.25;5041165;28;20048;-72
2021/11/04 09:49:01;;;;;;;9.98;6.93;;;;;;;19.12;70.15;95184.31;5043134;28;20107;-72
2021/11/04 09:51:28;;;;;;;22.23;13.52;;;;;;;19.28;72.16;95203.47;5043521;28;20041;-72
2021/11/04 09:53:54;;;;;;;11.25;6.70;;;;;;;19.61;71.16;95204.53;5042332;28;20060;-72
2021/11/04 09:56:21;;;;;;;13.02;7.93;;;;;;;19.98;68.97;95205.75;5025098;28;20041;-72
2021/11/04 09:58:48;;;;;;;9.32;5.68;;;;;;;20.49;68.30;95190.38;5046887;28;20052;-72
2021/11/04 10:01:19;;;;;;;13.32;7.78;;;;;;;20.69;65.79;95206.00;5046447;28;20402;-72
2021/11/04 10:03:46;;;;;;;14.80;7.55;;;;;;;21.24;63.14;95194.09;5045922;28;20057;-72
2021/11/04 10:06:22;;;;;;;11.25;7.50;;;;;;;21.07;64.12;95200.72;5040501;28;20426;-71
2021/11/04 10:08:51;;;;;;;9.68;4.97;;;;;;;21.37;59.84;95180.09;5045664;28;20049;-72
2021/11/04 10:11:19;;;;;;;7.53;4.95;;;;;;;21.53;58.81;95192.03;5045966;28;20056;-72
2021/11/04 10:13:47;;;;;;;15.38;10.20;;;;;;;21.55;59.96;95189.91;5046685;28;20487;-71
2021/11/04 10:16:16;;;;;;;8.20;4.75;;;;;;;21.93;58.16;95179.13;5044296;28;20040;-72
2021/11/04 10:18:53;;;;;;;9.85;6.38;;;;;;;21.91;58.19;95181.31;5046716;28;20124;-72
2021/11/04 10:21:41;;;;;;;6.47;3.38;;;;;;;22.04;56.45;95170.97;5046131;28;20045;-72
2021/11/04 10:24:19;;;;;;;13.13;7.93;;;;;;;21.54;56.48;95172.41;5045439;28;20048;-72
2021/11/04 10:26:52;;;;;;;8.90;4.70;;;;;;;21.93;57.68;95151.81;5042893;28;20048;-71
2021/11/04 10:29:19;;;;;;;10.50;5.68;;;;;;;22.22;54.97;95167.44;5043754;28;20464;-72
2021/11/04 10:31:53;;;;;;;9.75;5.97;;;;;;;21.90;56.08;95147.91;5047481;28;20503;-72
2021/11/04 10:34:25;;;;;;;;;;;;;;;22.12;54.96;95149.06;5043179;28;20049;-71
2021/11/04 10:36:53;;;;;;;10.55;7.40;;;;;;;22.06;54.85;95152.91;5041873;28;19971;-72
2021/11/04 10:39:28;;;;;;;25.13;15.88;;;;;;;22.30;56.63;95136.81;5045879;28;20033;-72
2021/11/04 10:41:56;;;;;;;11.45;7.88;;;;;;;22.59;55.33;95147.06;5046313;28;20037;-72
2021/11/04 10:44:23;;;;;;;13.30;9.32;;;;;;;22.60;53.47;95127.41;5046428;28;20041;-72
2021/11/04 10:46:57;;;;;;;9.88;6.90;;;;;;;22.40;54.21;95125.16;5028854;28;20051;-71
2021/11/04 10:49:40;;;;;;;22.95;15.65;;;;;;;22.80;51.61;95130.69;5046212;28;20041;-71
2021/11/04 10:52:09;;;;;;;26.00;19.63;;;;;;;23.07;54.00;95125.25;5028596;28;20045;-71
2021/11/04 10:54:49;;;;;;;63.05;40.45;;;;;;;22.49;52.55;95131.34;5044472;28;20053;-71
2021/11/04 10:57:42;;;;;;;22.10;13.70;;;;;;;22.44;53.93;95139.44;5046658;28;20048;-72
2021/11/04 11:00:26;;;;;;;12.20;8.15;;;;;;;22.86;52.09;95134.78;5040387;28;20056;-71
2021/11/04 11:02:56;;;;;;;17.40;12.85;;;;;;;23.48;50.90;95128.78;5042979;28;21105;-72
2021/11/04 11:05:28;;;;;;;13.75;8.70;;;;;;;23.41;48.52;95113.28;5043077;28;20133;-72
2021/11/04 11:07:56;;;;;;;17.45;11.35;;;;;;;23.51;48.51;95111.44;5042539;28;20037;-71
2021/11/04 11:10:23;;;;;;;17.52;12.73;;;;;;;23.78;47.39;95119.19;5045297;28;20039;-72
2021/11/04 11:12:50;;;;;;;10.65;7.18;;;;;;;23.55;48.37;95104.41;5045704;28;20473;-71
2021/11/04 11:15:18;;;;;;;12.70;8.88;;;;;;;23.62;48.58;95107.41;5045575;28;20051;-72
2021/11/04 11:17:48;;;;;;;8.60;6.28;;;;;;;23.35;49.75;95109.16;5044981;28;20083;-72
2021/11/04 11:20:17;;;;;;;10.52;7.22;;;;;;;22.64;51.10;95101.81;5046267;28;20498;-72
2021/11/04 11:22:44;;;;;;;16.48;11.82;;;;;;;22.55;51.96;95108.94;5044324;28;20037;-72
2021/11/04 11:25:12;;;;;;;18.55;12.65;;;;;;;22.25;54.08;95094.44;5044143;28;20518;-72
2021/11/04 11:27:39;;;;;;;50.15;32.85;;;;;;;22.01;53.94;95097.34;5045573;28;20041;-71
2021/11/04 11:30:13;;;;;;;16.38;9.98;;;;;;;21.14;55.90;95087.25;5045030;28;20115;-72